TAF SBBR
SBBR 072200Z 0800/0824 27005KT 9999 SCT035 TN19/0809Z TX28/0817Z PROB40 0806/0812 8000 BKN007 BECMG 0814/0816 SHRA BKN030 FEW040TCU PROB30 0817/0823 8000 TSRA BKN025 FEW040CB RMK PGG=
METAR SBBR
SBBR 080400Z 01003KT CAVOK 19/18 Q1014=
SBBR 080300Z 12004KT CAVOK 21/18 Q1015=
SBBR 080200Z VRB02KT CAVOK 20/18 Q1015=
SBBR 080100Z 26002KT CAVOK 22/18 Q1015=
SBBR 080000Z 17004KT 140V210 9999 FEW035 BKN100 23/18 Q1015=
WC SBBR
WS SBBR
WV SBBR